sensor_id;sensor_type;location;lat;lon;timestamp;P1;durP1;ratioP1;P2;durP2;ratioP2
1106;SDS011;540;49.448;8.612;2023-06-22T00:00:25;3.83;;;3.22;;
1106;SDS011;540;49.448;8.612;2023-06-22T00:02:53;8.25;;;3.05;;
1106;SDS011;540;49.448;8.612;2023-06-22T00:05:21;4.53;;;3.45;;
1106;SDS011;540;49.448;8.612;2023-06-22T00:07:49;5.57;;;3.55;;
1106;SDS011;540;49.448;8.612;2023-06-22T00:10:18;5.60;;;3.20;;
1106;SDS011;540;49.448;8.612;2023-06-22T00:12:46;5.15;;;3.30;;
1106;SDS011;540;49.448;8.612;2023-06-22T00:15:14;5.20;;;3.08;;
1106;SDS011;540;49.448;8.612;2023-06-22T00:17:42;6.53;;;3.70;;
1106;SDS011;540;49.448;8.612;2023-06-22T00:20:10;3.95;;;2.90;;
1106;SDS011;540;49.448;8.612;2023-06-22T00:22:40;4.07;;;3.28;;
1106;SDS011;540;49.448;8.612;2023-06-22T00:25:09;8.68;;;3.33;;
1106;SDS011;540;49.448;8.612;2023-06-22T00:27:38;4.78;;;3.53;;
1106;SDS011;540;49.448;8.612;2023-06-22T00:30:07;4.97;;;3.35;;
1106;SDS011;540;49.448;8.612;2023-06-22T00:32:35;5.20;;;3.65;;
1106;SDS011;540;49.448;8.612;2023-06-22T00:35:03;6.30;;;3.90;;
1106;SDS011;540;49.448;8.612;2023-06-22T00:37:32;5.75;;;3.60;;
1106;SDS011;540;49.448;8.612;2023-06-22T00:40:01;6.00;;;4.50;;
1106;SDS011;540;49.448;8.612;2023-06-22T00:42:30;6.18;;;4.35;;
1106;SDS011;540;49.448;8.612;2023-06-22T00:44:59;7.05;;;4.28;;
1106;SDS011;540;49.448;8.612;2023-06-22T00:47:27;9.68;;;4.90;;
1106;SDS011;540;49.448;8.612;2023-06-22T00:49:56;7.43;;;5.18;;
1106;SDS011;540;49.448;8.612;2023-06-22T00:52:23;7.18;;;5.22;;
1106;SDS011;540;49.448;8.612;2023-06-22T00:54:55;7.50;;;5.45;;
1106;SDS011;540;49.448;8.612;2023-06-22T00:57:24;7.18;;;5.57;;
1106;SDS011;540;49.448;8.612;2023-06-22T00:59:54;14.98;;;7.07;;
1106;SDS011;540;49.448;8.612;2023-06-22T01:02:23;13.70;;;6.75;;
1106;SDS011;540;49.448;8.612;2023-06-22T01:04:51;13.55;;;7.53;;
1106;SDS011;540;49.448;8.612;2023-06-22T01:07:22;10.45;;;6.60;;
1106;SDS011;540;49.448;8.612;2023-06-22T01:09:59;10.38;;;7.00;;
1106;SDS011;540;49.448;8.612;2023-06-22T01:12:31;9.80;;;6.45;;
1106;SDS011;540;49.448;8.612;2023-06-22T01:15:02;8.80;;;6.22;;
1106;SDS011;540;49.448;8.612;2023-06-22T01:17:36;9.57;;;6.80;;
1106;SDS011;540;49.448;8.612;2023-06-22T01:20:08;8.77;;;5.93;;
1106;SDS011;540;49.448;8.612;2023-06-22T01:22:40;9.07;;;6.13;;
1106;SDS011;540;49.448;8.612;2023-06-22T01:25:19;12.82;;;5.82;;
1106;SDS011;540;49.448;8.612;2023-06-22T01:27:53;10.18;;;6.65;;
1106;SDS011;540;49.448;8.612;2023-06-22T01:30:28;9.35;;;6.45;;
1106;SDS011;540;49.448;8.612;2023-06-22T01:32:58;9.60;;;6.35;;
1106;SDS011;540;49.448;8.612;2023-06-22T01:35:27;11.48;;;6.68;;
1106;SDS011;540;49.448;8.612;2023-06-22T01:37:56;9.50;;;6.28;;
1106;SDS011;540;49.448;8.612;2023-06-22T01:40:24;10.63;;;6.38;;
1106;SDS011;540;49.448;8.612;2023-06-22T01:42:53;8.63;;;6.55;;
1106;SDS011;540;49.448;8.612;2023-06-22T01:45:21;8.23;;;6.07;;
1106;SDS011;540;49.448;8.612;2023-06-22T01:47:51;9.60;;;7.30;;
1106;SDS011;540;49.448;8.612;2023-06-22T01:50:19;7.30;;;6.05;;
1106;SDS011;540;49.448;8.612;2023-06-22T01:52:48;9.60;;;7.32;;
1106;SDS011;540;49.448;8.612;2023-06-22T01:55:16;9.85;;;6.65;;
1106;SDS011;540;49.448;8.612;2023-06-22T01:57:44;7.32;;;6.03;;
1106;SDS011;540;49.448;8.612;2023-06-22T02:00:12;10.07;;;7.60;;
1106;SDS011;540;49.448;8.612;2023-06-22T02:02:48;11.80;;;6.97;;
1106;SDS011;540;49.448;8.612;2023-06-22T02:05:24;12.20;;;7.28;;
1106;SDS011;540;49.448;8.612;2023-06-22T02:08:00;12.65;;;7.13;;
1106;SDS011;540;49.448;8.612;2023-06-22T02:10:33;8.18;;;6.35;;
1106;SDS011;540;49.448;8.612;2023-06-22T02:13:04;9.95;;;7.25;;
1106;SDS011;540;49.448;8.612;2023-06-22T02:15:34;11.35;;;8.05;;
1106;SDS011;540;49.448;8.612;2023-06-22T02:18:03;9.40;;;7.03;;
1106;SDS011;540;49.448;8.612;2023-06-22T02:20:32;10.07;;;7.30;;
1106;SDS011;540;49.448;8.612;2023-06-22T02:23:03;10.35;;;7.28;;
1106;SDS011;540;49.448;8.612;2023-06-22T02:25:32;12.25;;;7.30;;
1106;SDS011;540;49.448;8.612;2023-06-22T02:28:00;12.38;;;7.25;;
1106;SDS011;540;49.448;8.612;2023-06-22T02:30:28;13.30;;;7.03;;
1106;SDS011;540;49.448;8.612;2023-06-22T02:32:56;11.27;;;7.32;;
1106;SDS011;540;49.448;8.612;2023-06-22T02:35:27;8.80;;;6.75;;
1106;SDS011;540;49.448;8.612;2023-06-22T02:37:57;9.10;;;6.60;;
1106;SDS011;540;49.448;8.612;2023-06-22T02:40:25;9.90;;;7.00;;
1106;SDS011;540;49.448;8.612;2023-06-22T02:42:54;11.30;;;7.03;;
1106;SDS011;540;49.448;8.612;2023-06-22T02:45:24;8.85;;;7.22;;
1106;SDS011;540;49.448;8.612;2023-06-22T02:47:51;9.02;;;7.00;;
1106;SDS011;540;49.448;8.612;2023-06-22T02:50:19;8.40;;;6.43;;
1106;SDS011;540;49.448;8.612;2023-06-22T02:52:48;8.88;;;6.32;;
1106;SDS011;540;49.448;8.612;2023-06-22T02:55:16;9.57;;;7.00;;
1106;SDS011;540;49.448;8.612;2023-06-22T02:57:44;9.05;;;6.13;;
1106;SDS011;540;49.448;8.612;2023-06-22T03:00:14;8.98;;;6.72;;
1106;SDS011;540;49.448;8.612;2023-06-22T03:02:44;8.52;;;5.97;;
1106;SDS011;540;49.448;8.612;2023-06-22T03:05:12;10.80;;;5.95;;
1106;SDS011;540;49.448;8.612;2023-06-22T03:07:40;8.32;;;5.55;;
1106;SDS011;540;49.448;8.612;2023-06-22T03:10:10;8.90;;;5.32;;
1106;SDS011;540;49.448;8.612;2023-06-22T03:12:39;7.63;;;5.22;;
1106;SDS011;540;49.448;8.612;2023-06-22T03:15:09;8.45;;;5.90;;
1106;SDS011;540;49.448;8.612;2023-06-22T03:17:38;8.43;;;5.70;;
1106;SDS011;540;49.448;8.612;2023-06-22T03:20:07;7.07;;;5.63;;
1106;SDS011;540;49.448;8.612;2023-06-22T03:22:37;7.07;;;5.57;;
1106;SDS011;540;49.448;8.612;2023-06-22T03:25:06;9.45;;;6.60;;
1106;SDS011;540;49.448;8.612;2023-06-22T03:27:38;8.90;;;6.43;;
1106;SDS011;540;49.448;8.612;2023-06-22T03:30:06;8.02;;;5.90;;
1106;SDS011;540;49.448;8.612;2023-06-22T03:32:35;6.70;;;5.53;;
1106;SDS011;540;49.448;8.612;2023-06-22T03:35:04;9.00;;;6.53;;
1106;SDS011;540;49.448;8.612;2023-06-22T03:37:32;7.82;;;5.45;;
1106;SDS011;540;49.448;8.612;2023-06-22T03:40:00;10.25;;;5.97;;
1106;SDS011;540;49.448;8.612;2023-06-22T03:42:29;7.22;;;5.60;;
1106;SDS011;540;49.448;8.612;2023-06-22T03:44:58;6.30;;;5.13;;
1106;SDS011;540;49.448;8.612;2023-06-22T03:47:27;8.15;;;5.55;;
1106;SDS011;540;49.448;8.612;2023-06-22T03:49:55;8.02;;;4.72;;
1106;SDS011;540;49.448;8.612;2023-06-22T03:52:22;6.57;;;5.13;;
1106;SDS011;540;49.448;8.612;2023-06-22T03:54:51;8.68;;;5.18;;
1106;SDS011;540;49.448;8.612;2023-06-22T03:57:19;8.98;;;5.10;;
1106;SDS011;540;49.448;8.612;2023-06-22T03:59:47;6.68;;;5.55;;
1106;SDS011;540;49.448;8.612;2023-06-22T04:02:16;8.85;;;5.90;;
1106;SDS011;540;49.448;8.612;2023-06-22T04:04:44;6.85;;;5.32;;
1106;SDS011;540;49.448;8.612;2023-06-22T04:07:12;8.60;;;5.53;;
1106;SDS011;540;49.448;8.612;2023-06-22T04:09:39;8.30;;;5.22;;
1106;SDS011;540;49.448;8.612;2023-06-22T04:12:07;7.82;;;5.35;;
1106;SDS011;540;49.448;8.612;2023-06-22T04:14:35;8.82;;;5.60;;
1106;SDS011;540;49.448;8.612;2023-06-22T04:17:03;9.43;;;5.35;;
1106;SDS011;540;49.448;8.612;2023-06-22T04:19:33;9.75;;;5.38;;
1106;SDS011;540;49.448;8.612;2023-06-22T04:22:01;11.80;;;5.90;;
1106;SDS011;540;49.448;8.612;2023-06-22T04:24:29;5.95;;;5.30;;
1106;SDS011;540;49.448;8.612;2023-06-22T04:26:57;8.32;;;6.03;;
1106;SDS011;540;49.448;8.612;2023-06-22T04:29:28;8.23;;;5.47;;
1106;SDS011;540;49.448;8.612;2023-06-22T04:31:56;8.07;;;4.53;;
1106;SDS011;540;49.448;8.612;2023-06-22T04:34:32;8.82;;;4.82;;
1106;SDS011;540;49.448;8.612;2023-06-22T04:37:00;9.25;;;4.95;;
1106;SDS011;540;49.448;8.612;2023-06-22T04:39:28;9.13;;;4.85;;
1106;SDS011;540;49.448;8.612;2023-06-22T04:41:56;8.80;;;5.20;;
1106;SDS011;540;49.448;8.612;2023-06-22T04:44:26;8.27;;;5.25;;
1106;SDS011;540;49.448;8.612;2023-06-22T04:46:56;6.65;;;4.70;;
1106;SDS011;540;49.448;8.612;2023-06-22T04:49:29;11.33;;;5.43;;
1106;SDS011;540;49.448;8.612;2023-06-22T04:52:01;13.48;;;5.05;;
1106;SDS011;540;49.448;8.612;2023-06-22T04:54:30;11.40;;;5.10;;
1106;SDS011;540;49.448;8.612;2023-06-22T04:56:59;9.63;;;5.05;;
1106;SDS011;540;49.448;8.612;2023-06-22T04:59:27;10.15;;;6.20;;
1106;SDS011;540;49.448;8.612;2023-06-22T05:01:56;8.80;;;5.60;;
1106;SDS011;540;49.448;8.612;2023-06-22T05:04:25;8.73;;;5.82;;
1106;SDS011;540;49.448;8.612;2023-06-22T05:06:54;8.68;;;5.45;;
1106;SDS011;540;49.448;8.612;2023-06-22T05:09:23;5.47;;;4.68;;
1106;SDS011;540;49.448;8.612;2023-06-22T05:11:51;6.05;;;4.82;;
1106;SDS011;540;49.448;8.612;2023-06-22T05:14:19;6.15;;;5.00;;
1106;SDS011;540;49.448;8.612;2023-06-22T05:16:48;7.82;;;5.03;;
1106;SDS011;540;49.448;8.612;2023-06-22T05:19:18;11.98;;;5.68;;
1106;SDS011;540;49.448;8.612;2023-06-22T05:21:46;5.50;;;4.28;;
1106;SDS011;540;49.448;8.612;2023-06-22T05:24:13;8.18;;;5.18;;
1106;SDS011;540;49.448;8.612;2023-06-22T05:26:43;8.57;;;5.20;;
1106;SDS011;540;49.448;8.612;2023-06-22T05:29:28;9.15;;;5.35;;
1106;SDS011;540;49.448;8.612;2023-06-22T05:31:56;9.20;;;5.15;;
1106;SDS011;540;49.448;8.612;2023-06-22T05:34:23;9.68;;;5.28;;
1106;SDS011;540;49.448;8.612;2023-06-22T05:36:52;7.82;;;5.50;;
1106;SDS011;540;49.448;8.612;2023-06-22T05:39:19;7.75;;;5.28;;
1106;SDS011;540;49.448;8.612;2023-06-22T05:41:48;7.78;;;5.25;;
1106;SDS011;540;49.448;8.612;2023-06-22T05:44:16;5.82;;;5.13;;
1106;SDS011;540;49.448;8.612;2023-06-22T05:46:44;7.20;;;4.85;;
1106;SDS011;540;49.448;8.612;2023-06-22T05:49:13;8.25;;;4.80;;
1106;SDS011;540;49.448;8.612;2023-06-22T05:51:41;6.43;;;4.90;;
1106;SDS011;540;49.448;8.612;2023-06-22T05:54:09;6.45;;;4.45;;
1106;SDS011;540;49.448;8.612;2023-06-22T05:56:39;8.63;;;5.03;;
1106;SDS011;540;49.448;8.612;2023-06-22T05:59:08;6.30;;;4.13;;
1106;SDS011;540;49.448;8.612;2023-06-22T06:01:36;4.60;;;4.03;;
1106;SDS011;540;49.448;8.612;2023-06-22T06:04:06;6.95;;;4.78;;
1106;SDS011;540;49.448;8.612;2023-06-22T06:06:35;7.30;;;4.28;;
1106;SDS011;540;49.448;8.612;2023-06-22T06:09:04;8.80;;;6.32;;
1106;SDS011;540;49.448;8.612;2023-06-22T06:11:32;5.30;;;4.80;;
1106;SDS011;540;49.448;8.612;2023-06-22T06:14:00;6.00;;;5.25;;
1106;SDS011;540;49.448;8.612;2023-06-22T06:16:30;6.05;;;4.00;;
1106;SDS011;540;49.448;8.612;2023-06-22T06:18:58;6.57;;;5.05;;
1106;SDS011;540;49.448;8.612;2023-06-22T06:21:26;8.35;;;4.97;;
1106;SDS011;540;49.448;8.612;2023-06-22T06:23:56;5.47;;;4.38;;
1106;SDS011;540;49.448;8.612;2023-06-22T06:26:24;9.27;;;4.13;;
1106;SDS011;540;49.448;8.612;2023-06-22T06:28:56;6.63;;;4.20;;
1106;SDS011;540;49.448;8.612;2023-06-22T06:31:24;5.05;;;4.40;;
1106;SDS011;540;49.448;8.612;2023-06-22T06:33:56;6.60;;;4.13;;
1106;SDS011;540;49.448;8.612;2023-06-22T06:36:23;6.57;;;4.50;;
1106;SDS011;540;49.448;8.612;2023-06-22T06:38:51;6.15;;;4.32;;
1106;SDS011;540;49.448;8.612;2023-06-22T06:41:19;5.90;;;4.32;;
1106;SDS011;540;49.448;8.612;2023-06-22T06:43:48;6.13;;;4.50;;
1106;SDS011;540;49.448;8.612;2023-06-22T06:46:16;5.10;;;4.50;;
1106;SDS011;540;49.448;8.612;2023-06-22T06:48:45;6.10;;;4.43;;
1106;SDS011;540;49.448;8.612;2023-06-22T06:51:14;5.45;;;3.67;;
1106;SDS011;540;49.448;8.612;2023-06-22T06:53:42;5.47;;;4.25;;
1106;SDS011;540;49.448;8.612;2023-06-22T06:56:10;5.88;;;4.20;;
1106;SDS011;540;49.448;8.612;2023-06-22T06:58:40;5.53;;;4.85;;
1106;SDS011;540;49.448;8.612;2023-06-22T07:01:09;4.97;;;4.13;;
1106;SDS011;540;49.448;8.612;2023-06-22T07:03:36;4.55;;;3.58;;
1106;SDS011;540;49.448;8.612;2023-06-22T07:06:04;5.45;;;4.00;;
1106;SDS011;540;49.448;8.612;2023-06-22T07:08:33;5.07;;;3.80;;
1106;SDS011;540;49.448;8.612;2023-06-22T07:11:02;4.95;;;4.13;;
1106;SDS011;540;49.448;8.612;2023-06-22T07:13:30;4.65;;;3.90;;
1106;SDS011;540;49.448;8.612;2023-06-22T07:15:59;10.10;;;3.50;;
1106;SDS011;540;49.448;8.612;2023-06-22T07:18:27;7.72;;;4.47;;
1106;SDS011;540;49.448;8.612;2023-06-22T07:20:55;4.82;;;4.22;;
1106;SDS011;540;49.448;8.612;2023-06-22T07:23:23;4.28;;;3.80;;
1106;SDS011;540;49.448;8.612;2023-06-22T07:25:52;3.78;;;3.38;;
1106;SDS011;540;49.448;8.612;2023-06-22T07:28:20;6.80;;;3.75;;
1106;SDS011;540;49.448;8.612;2023-06-22T07:30:48;5.03;;;3.90;;
1106;SDS011;540;49.448;8.612;2023-06-22T07:33:17;4.82;;;3.80;;
1106;SDS011;540;49.448;8.612;2023-06-22T07:35:45;5.72;;;3.70;;
1106;SDS011;540;49.448;8.612;2023-06-22T07:38:14;7.15;;;3.70;;
1106;SDS011;540;49.448;8.612;2023-06-22T07:40:42;4.40;;;3.80;;
1106;SDS011;540;49.448;8.612;2023-06-22T07:43:12;4.30;;;3.50;;
1106;SDS011;540;49.448;8.612;2023-06-22T07:45:40;4.07;;;3.67;;
1106;SDS011;540;49.448;8.612;2023-06-22T07:48:09;5.78;;;4.13;;
1106;SDS011;540;49.448;8.612;2023-06-22T07:50:36;7.47;;;4.15;;
1106;SDS011;540;49.448;8.612;2023-06-22T07:53:04;6.95;;;3.83;;
1106;SDS011;540;49.448;8.612;2023-06-22T07:55:32;4.45;;;3.58;;
1106;SDS011;540;49.448;8.612;2023-06-22T07:58:00;4.88;;;4.40;;
1106;SDS011;540;49.448;8.612;2023-06-22T08:00:29;7.18;;;4.50;;
1106;SDS011;540;49.448;8.612;2023-06-22T08:02:57;6.50;;;3.85;;
1106;SDS011;540;49.448;8.612;2023-06-22T08:05:27;6.57;;;4.25;;
1106;SDS011;540;49.448;8.612;2023-06-22T08:07:57;5.88;;;3.92;;
1106;SDS011;540;49.448;8.612;2023-06-22T08:10:27;4.40;;;3.58;;
1106;SDS011;540;49.448;8.612;2023-06-22T08:12:57;4.20;;;3.75;;
1106;SDS011;540;49.448;8.612;2023-06-22T08:15:27;5.32;;;3.63;;
1106;SDS011;540;49.448;8.612;2023-06-22T08:17:59;4.57;;;3.35;;
1106;SDS011;540;49.448;8.612;2023-06-22T08:20:29;11.40;;;3.70;;
1106;SDS011;540;49.448;8.612;2023-06-22T08:22:59;6.43;;;3.63;;
1106;SDS011;540;49.448;8.612;2023-06-22T08:25:33;4.70;;;3.90;;
1106;SDS011;540;49.448;8.612;2023-06-22T08:28:03;4.78;;;4.10;;
1106;SDS011;540;49.448;8.612;2023-06-22T08:30:35;4.28;;;3.88;;
1106;SDS011;540;49.448;8.612;2023-06-22T08:33:05;4.20;;;3.83;;
1106;SDS011;540;49.448;8.612;2023-06-22T08:35:37;12.77;;;10.55;;
1106;SDS011;540;49.448;8.612;2023-06-22T08:38:07;10.15;;;4.35;;
1106;SDS011;540;49.448;8.612;2023-06-22T08:40:42;6.90;;;4.00;;
1106;SDS011;540;49.448;8.612;2023-06-22T08:43:12;6.57;;;5.18;;
1106;SDS011;540;49.448;8.612;2023-06-22T08:45:44;5.35;;;4.85;;
1106;SDS011;540;49.448;8.612;2023-06-22T08:48:14;5.78;;;3.80;;
1106;SDS011;540;49.448;8.612;2023-06-22T08:50:44;5.32;;;4.15;;
1106;SDS011;540;49.448;8.612;2023-06-22T08:53:12;5.97;;;4.68;;
1106;SDS011;540;49.448;8.612;2023-06-22T08:55:42;5.78;;;4.25;;
1106;SDS011;540;49.448;8.612;2023-06-22T08:58:12;4.20;;;3.47;;
1106;SDS011;540;49.448;8.612;2023-06-22T09:00:40;4.35;;;3.92;;
1106;SDS011;540;49.448;8.612;2023-06-22T09:03:09;4.90;;;4.25;;
1106;SDS011;540;49.448;8.612;2023-06-22T09:05:37;4.80;;;4.07;;
1106;SDS011;540;49.448;8.612;2023-06-22T09:08:05;6.90;;;4.22;;
1106;SDS011;540;49.448;8.612;2023-06-22T09:10:32;7.70;;;4.43;;
1106;SDS011;540;49.448;8.612;2023-06-22T09:13:00;5.82;;;3.97;;
1106;SDS011;540;49.448;8.612;2023-06-22T09:15:28;6.38;;;4.25;;
1106;SDS011;540;49.448;8.612;2023-06-22T09:17:57;6.00;;;4.15;;
1106;SDS011;540;49.448;8.612;2023-06-22T09:20:26;6.53;;;4.10;;
1106;SDS011;540;49.448;8.612;2023-06-22T09:22:55;6.25;;;4.60;;
1106;SDS011;540;49.448;8.612;2023-06-22T09:25:22;5.00;;;3.90;;
1106;SDS011;540;49.448;8.612;2023-06-22T09:27:50;7.93;;;3.65;;
1106;SDS011;540;49.448;8.612;2023-06-22T09:30:18;8.23;;;4.40;;
1106;SDS011;540;49.448;8.612;2023-06-22T09:32:46;9.65;;;4.57;;
1106;SDS011;540;49.448;8.612;2023-06-22T09:35:14;7.30;;;4.45;;
1106;SDS011;540;49.448;8.612;2023-06-22T09:37:43;5.80;;;4.07;;
1106;SDS011;540;49.448;8.612;2023-06-22T09:40:11;8.93;;;4.43;;
1106;SDS011;540;49.448;8.612;2023-06-22T09:42:42;9.35;;;4.55;;
1106;SDS011;540;49.448;8.612;2023-06-22T09:45:10;8.20;;;4.28;;
1106;SDS011;540;49.448;8.612;2023-06-22T09:47:38;5.25;;;4.10;;
1106;SDS011;540;49.448;8.612;2023-06-22T09:50:06;6.93;;;4.43;;
1106;SDS011;540;49.448;8.612;2023-06-22T09:52:34;7.50;;;4.32;;
1106;SDS011;540;49.448;8.612;2023-06-22T09:55:07;10.98;;;4.88;;
1106;SDS011;540;49.448;8.612;2023-06-22T09:57:35;6.38;;;4.32;;
1106;SDS011;540;49.448;8.612;2023-06-22T10:00:03;8.40;;;5.00;;
1106;SDS011;540;49.448;8.612;2023-06-22T10:02:35;8.18;;;4.60;;
1106;SDS011;540;49.448;8.612;2023-06-22T10:05:03;7.35;;;5.15;;
1106;SDS011;540;49.448;8.612;2023-06-22T10:07:32;14.10;;;5.55;;
1106;SDS011;540;49.448;8.612;2023-06-22T10:09:59;11.82;;;5.53;;
1106;SDS011;540;49.448;8.612;2023-06-22T10:12:29;9.98;;;4.95;;
1106;SDS011;540;49.448;8.612;2023-06-22T10:14:57;11.38;;;5.40;;
1106;SDS011;540;49.448;8.612;2023-06-22T10:17:26;9.13;;;4.50;;
1106;SDS011;540;49.448;8.612;2023-06-22T10:19:53;6.97;;;4.60;;
1106;SDS011;540;49.448;8.612;2023-06-22T10:22:21;8.27;;;4.95;;
1106;SDS011;540;49.448;8.612;2023-06-22T10:24:49;7.43;;;4.70;;
1106;SDS011;540;49.448;8.612;2023-06-22T10:27:17;8.32;;;5.15;;
1106;SDS011;540;49.448;8.612;2023-06-22T10:29:46;11.80;;;5.13;;
1106;SDS011;540;49.448;8.612;2023-06-22T10:32:14;8.27;;;4.20;;
1106;SDS011;540;49.448;8.612;2023-06-22T10:34:41;7.55;;;5.03;;
1106;SDS011;540;49.448;8.612;2023-06-22T10:37:09;9.52;;;4.75;;
1106;SDS011;540;49.448;8.612;2023-06-22T10:39:37;7.28;;;3.95;;
1106;SDS011;540;49.448;8.612;2023-06-22T10:42:05;6.10;;;4.55;;
1106;SDS011;540;49.448;8.612;2023-06-22T10:44:33;7.47;;;4.88;;
1106;SDS011;540;49.448;8.612;2023-06-22T10:47:02;7.18;;;4.30;;
1106;SDS011;540;49.448;8.612;2023-06-22T10:49:30;9.70;;;5.10;;
1106;SDS011;540;49.448;8.612;2023-06-22T10:51:58;8.32;;;4.75;;
1106;SDS011;540;49.448;8.612;2023-06-22T10:54:26;9.45;;;4.47;;
1106;SDS011;540;49.448;8.612;2023-06-22T10:56:53;7.70;;;4.57;;
1106;SDS011;540;49.448;8.612;2023-06-22T10:59:21;6.68;;;4.70;;
1106;SDS011;540;49.448;8.612;2023-06-22T11:01:49;9.20;;;4.68;;
1106;SDS011;540;49.448;8.612;2023-06-22T11:04:19;5.80;;;4.75;;
1106;SDS011;540;49.448;8.612;2023-06-22T11:06:47;7.20;;;4.50;;
1106;SDS011;540;49.448;8.612;2023-06-22T11:09:15;6.05;;;4.70;;
1106;SDS011;540;49.448;8.612;2023-06-22T11:11:52;12.43;;;5.32;;
1106;SDS011;540;49.448;8.612;2023-06-22T11:14:20;5.82;;;4.80;;
1106;SDS011;540;49.448;8.612;2023-06-22T11:16:48;10.25;;;4.10;;
1106;SDS011;540;49.448;8.612;2023-06-22T11:19:16;7.03;;;3.90;;
1106;SDS011;540;49.448;8.612;2023-06-22T11:21:46;9.60;;;4.03;;
1106;SDS011;540;49.448;8.612;2023-06-22T11:24:13;9.82;;;4.32;;
1106;SDS011;540;49.448;8.612;2023-06-22T11:26:42;7.05;;;4.32;;
1106;SDS011;540;49.448;8.612;2023-06-22T11:29:10;14.10;;;4.60;;
1106;SDS011;540;49.448;8.612;2023-06-22T11:31:57;6.95;;;4.18;;
1106;SDS011;540;49.448;8.612;2023-06-22T11:34:26;6.60;;;4.63;;
1106;SDS011;540;49.448;8.612;2023-06-22T11:36:54;6.85;;;4.40;;
1106;SDS011;540;49.448;8.612;2023-06-22T11:39:22;7.30;;;4.50;;
1106;SDS011;540;49.448;8.612;2023-06-22T11:42:06;11.52;;;4.75;;
1106;SDS011;540;49.448;8.612;2023-06-22T11:44:35;10.98;;;4.47;;
1106;SDS011;540;49.448;8.612;2023-06-22T11:47:03;8.02;;;4.78;;
1106;SDS011;540;49.448;8.612;2023-06-22T11:49:32;7.80;;;4.53;;
1106;SDS011;540;49.448;8.612;2023-06-22T11:52:01;12.38;;;4.75;;
1106;SDS011;540;49.448;8.612;2023-06-22T11:54:29;9.38;;;5.03;;
1106;SDS011;540;49.448;8.612;2023-06-22T11:57:00;7.72;;;4.28;;
1106;SDS011;540;49.448;8.612;2023-06-22T11:59:27;8.02;;;4.13;;
1106;SDS011;540;49.448;8.612;2023-06-22T12:01:55;11.35;;;4.30;;
1106;SDS011;540;49.448;8.612;2023-06-22T12:04:24;9.68;;;4.68;;
1106;SDS011;540;49.448;8.612;2023-06-22T12:06:53;13.75;;;5.18;;
1106;SDS011;540;49.448;8.612;2023-06-22T12:09:21;12.75;;;5.07;;
1106;SDS011;540;49.448;8.612;2023-06-22T12:11:49;9.05;;;4.88;;
1106;SDS011;540;49.448;8.612;2023-06-22T12:14:17;8.30;;;4.32;;
1106;SDS011;540;49.448;8.612;2023-06-22T12:16:44;10.98;;;4.90;;
1106;SDS011;540;49.448;8.612;2023-06-22T12:19:12;10.13;;;4.15;;
1106;SDS011;540;49.448;8.612;2023-06-22T12:21:40;9.23;;;5.05;;
1106;SDS011;540;49.448;8.612;2023-06-22T12:24:12;6.85;;;4.13;;
1106;SDS011;540;49.448;8.612;2023-06-22T12:26:40;9.38;;;4.53;;
1106;SDS011;540;49.448;8.612;2023-06-22T12:29:08;10.77;;;4.43;;
1106;SDS011;540;49.448;8.612;2023-06-22T12:31:36;6.85;;;4.80;;
1106;SDS011;540;49.448;8.612;2023-06-22T12:34:05;9.23;;;5.00;;
1106;SDS011;540;49.448;8.612;2023-06-22T12:36:32;7.78;;;4.05;;
1106;SDS011;540;49.448;8.612;2023-06-22T12:39:00;8.88;;;4.72;;
1106;SDS011;540;49.448;8.612;2023-06-22T12:41:29;9.13;;;3.88;;
1106;SDS011;540;49.448;8.612;2023-06-22T12:43:57;7.40;;;4.28;;
1106;SDS011;540;49.448;8.612;2023-06-22T12:46:25;8.48;;;4.43;;
1106;SDS011;540;49.448;8.612;2023-06-22T12:48:53;9.27;;;4.90;;
1106;SDS011;540;49.448;8.612;2023-06-22T12:51:21;9.40;;;4.70;;
1106;SDS011;540;49.448;8.612;2023-06-22T12:53:49;9.30;;;4.25;;
1106;SDS011;540;49.448;8.612;2023-06-22T12:56:17;14.27;;;5.80;;
1106;SDS011;540;49.448;8.612;2023-06-22T12:58:46;8.82;;;3.75;;
1106;SDS011;540;49.448;8.612;2023-06-22T13:01:14;13.32;;;5.20;;
1106;SDS011;540;49.448;8.612;2023-06-22T13:03:44;11.68;;;4.43;;
1106;SDS011;540;49.448;8.612;2023-06-22T13:06:12;9.85;;;4.38;;
1106;SDS011;540;49.448;8.612;2023-06-22T13:08:39;11.05;;;4.97;;
1106;SDS011;540;49.448;8.612;2023-06-22T13:11:10;9.73;;;4.32;;
1106;SDS011;540;49.448;8.612;2023-06-22T13:13:38;9.35;;;4.60;;
1106;SDS011;540;49.448;8.612;2023-06-22T13:16:08;10.20;;;4.50;;
1106;SDS011;540;49.448;8.612;2023-06-22T13:18:36;8.52;;;4.70;;
1106;SDS011;540;49.448;8.612;2023-06-22T13:21:04;10.20;;;4.53;;
1106;SDS011;540;49.448;8.612;2023-06-22T13:23:32;10.23;;;4.40;;
1106;SDS011;540;49.448;8.612;2023-06-22T13:26:01;9.38;;;4.97;;
1106;SDS011;540;49.448;8.612;2023-06-22T13:28:29;12.60;;;5.32;;
1106;SDS011;540;49.448;8.612;2023-06-22T13:30:57;9.13;;;5.05;;
1106;SDS011;540;49.448;8.612;2023-06-22T13:33:26;13.60;;;5.10;;
1106;SDS011;540;49.448;8.612;2023-06-22T13:36:11;9.48;;;4.90;;
1106;SDS011;540;49.448;8.612;2023-06-22T13:38:39;6.82;;;4.32;;
1106;SDS011;540;49.448;8.612;2023-06-22T13:41:07;9.75;;;5.05;;
1106;SDS011;540;49.448;8.612;2023-06-22T13:43:52;10.38;;;5.00;;
1106;SDS011;540;49.448;8.612;2023-06-22T13:49:24;8.13;;;4.72;;
1106;SDS011;540;49.448;8.612;2023-06-22T13:51:53;9.93;;;4.72;;
1106;SDS011;540;49.448;8.612;2023-06-22T13:54:21;8.82;;;4.63;;
1106;SDS011;540;49.448;8.612;2023-06-22T13:56:55;10.20;;;5.07;;
1106;SDS011;540;49.448;8.612;2023-06-22T13:59:23;6.07;;;4.35;;
1106;SDS011;540;49.448;8.612;2023-06-22T14:01:53;7.43;;;4.80;;
1106;SDS011;540;49.448;8.612;2023-06-22T14:04:21;10.77;;;5.50;;
1106;SDS011;540;49.448;8.612;2023-06-22T14:06:51;9.18;;;4.82;;
1106;SDS011;540;49.448;8.612;2023-06-22T14:09:22;15.93;;;5.45;;
1106;SDS011;540;49.448;8.612;2023-06-22T14:11:50;10.48;;;4.88;;
1106;SDS011;540;49.448;8.612;2023-06-22T14:14:18;11.93;;;4.88;;
1106;SDS011;540;49.448;8.612;2023-06-22T14:16:46;11.95;;;6.13;;
1106;SDS011;540;49.448;8.612;2023-06-22T14:19:16;9.30;;;5.15;;
1106;SDS011;540;49.448;8.612;2023-06-22T14:21:45;10.82;;;4.68;;
1106;SDS011;540;49.448;8.612;2023-06-22T14:24:14;10.88;;;4.85;;
1106;SDS011;540;49.448;8.612;2023-06-22T14:26:42;11.38;;;4.63;;
1106;SDS011;540;49.448;8.612;2023-06-22T14:29:10;10.50;;;4.43;;
1106;SDS011;540;49.448;8.612;2023-06-22T14:31:37;13.68;;;5.32;;
1106;SDS011;540;49.448;8.612;2023-06-22T14:34:05;8.20;;;4.60;;
1106;SDS011;540;49.448;8.612;2023-06-22T14:36:33;11.70;;;5.43;;
1106;SDS011;540;49.448;8.612;2023-06-22T14:39:01;11.43;;;4.53;;
1106;SDS011;540;49.448;8.612;2023-06-22T14:41:30;9.45;;;5.45;;
1106;SDS011;540;49.448;8.612;2023-06-22T14:43:58;10.50;;;5.05;;
1106;SDS011;540;49.448;8.612;2023-06-22T14:46:26;10.00;;;5.15;;
1106;SDS011;540;49.448;8.612;2023-06-22T14:48:55;8.70;;;4.95;;
1106;SDS011;540;49.448;8.612;2023-06-22T14:51:22;11.00;;;5.38;;
1106;SDS011;540;49.448;8.612;2023-06-22T14:53:50;12.77;;;5.30;;
1106;SDS011;540;49.448;8.612;2023-06-22T14:56:18;9.52;;;4.93;;
1106;SDS011;540;49.448;8.612;2023-06-22T14:58:47;7.72;;;5.30;;
1106;SDS011;540;49.448;8.612;2023-06-22T15:01:16;13.25;;;5.00;;
1106;SDS011;540;49.448;8.612;2023-06-22T15:03:44;10.75;;;5.82;;
1106;SDS011;540;49.448;8.612;2023-06-22T15:06:12;14.18;;;5.70;;
1106;SDS011;540;49.448;8.612;2023-06-22T15:08:40;15.02;;;5.75;;
1106;SDS011;540;49.448;8.612;2023-06-22T15:11:08;11.05;;;5.47;;
1106;SDS011;540;49.448;8.612;2023-06-22T15:13:38;11.05;;;6.53;;
1106;SDS011;540;49.448;8.612;2023-06-22T15:16:08;12.52;;;5.25;;
1106;SDS011;540;49.448;8.612;2023-06-22T15:18:36;9.90;;;5.65;;
1106;SDS011;540;49.448;8.612;2023-06-22T15:21:07;16.33;;;6.35;;
1106;SDS011;540;49.448;8.612;2023-06-22T15:23:35;9.82;;;5.78;;
1106;SDS011;540;49.448;8.612;2023-06-22T15:26:03;9.88;;;5.47;;
1106;SDS011;540;49.448;8.612;2023-06-22T15:28:32;11.65;;;6.15;;
1106;SDS011;540;49.448;8.612;2023-06-22T15:31:01;12.30;;;6.15;;
1106;SDS011;540;49.448;8.612;2023-06-22T15:33:30;11.35;;;5.57;;
1106;SDS011;540;49.448;8.612;2023-06-22T15:35:58;12.10;;;5.38;;
1106;SDS011;540;49.448;8.612;2023-06-22T15:38:30;11.82;;;6.18;;
1106;SDS011;540;49.448;8.612;2023-06-22T15:40:57;9.68;;;5.22;;